Orangeville, Utah
Current Conditions -  °F | °C
As of 12:53 AM on Wednesday 22 Oct 2014 (Local Time) from KPUC Reporting Station
Clear Clear  
Wind Chill: 52°   Ceiling: Unl
Heat Index: 52°   Visibility: 10mi
Dew Point: 37°   Wind: 7mph
Humidity: 57%   Direction: 340°NNW
Pressure: 30.05"   Gusts: NA
Location:  39.23°N, 111.05°W
Report Text: KPUC 220653Z AUTO 34006KT 10SM CLR 11/03 A3005 RMK AO2 SLP134 T01110028 401940072 TSNO
Loading
Personal Weather Stations






























Interactive Weather Map
Tropical Storm Tracking
New forecast layout! Learn more

10-Day Weather Forecast

Advertisements
Track Severe Weather on mobile